createdAt,value
2023-04-15T00:06:25.785Z,5.7
2023-04-15T00:16:25.728Z,5.5
2023-04-15T00:26:25.729Z,5.5
2023-04-15T00:36:25.687Z,5.5
2023-04-15T00:46:25.654Z,5.6
2023-04-15T00:56:25.627Z,5.8
2023-04-15T01:06:25.582Z,5.7
2023-04-15T01:16:25.605Z,5.5
2023-04-15T01:26:25.527Z,5.5
2023-04-15T01:36:25.594Z,5.4
2023-04-15T01:46:25.492Z,5.2
2023-04-15T01:56:25.448Z,4.8
2023-04-15T02:06:25.434Z,4.8
2023-04-15T02:16:25.423Z,4.5
2023-04-15T02:26:25.407Z,4
2023-04-15T02:36:25.343Z,3.6
2023-04-15T02:46:25.347Z,3.5
2023-04-15T02:56:25.311Z,3.4
2023-04-15T03:06:25.327Z,3.2
2023-04-15T03:16:25.249Z,3.2
2023-04-15T03:26:25.242Z,3.3
2023-04-15T03:36:25.184Z,3.1
2023-04-15T03:46:25.180Z,2.8
2023-04-15T03:56:25.135Z,2.7
2023-04-15T04:06:25.131Z,2.5
2023-04-15T04:16:25.101Z,2.4
2023-04-15T04:26:25.087Z,2
2023-04-15T04:36:25.036Z,1.9
2023-04-15T04:46:25.017Z,1.8
2023-04-15T04:56:25.005Z,1.9
2023-04-15T05:06:24.973Z,1.8
2023-04-15T05:16:24.977Z,2.2
2023-04-15T05:26:24.938Z,2.6
2023-04-15T05:36:24.953Z,3
2023-04-15T05:46:24.883Z,3.4
2023-04-15T05:56:24.860Z,4.2
2023-04-15T06:06:24.823Z,5.1
2023-04-15T06:16:24.804Z,6
2023-04-15T06:26:24.771Z,6.3
2023-04-15T06:36:24.770Z,6.8
2023-04-15T06:46:24.710Z,7.4
2023-04-15T06:56:24.683Z,8
2023-04-15T07:06:24.635Z,9.1
2023-04-15T07:16:24.828Z,10.3
2023-04-15T07:26:24.598Z,11
2023-04-15T07:36:24.610Z,11
2023-04-15T07:46:24.556Z,10.9
2023-04-15T07:56:24.640Z,11.1
2023-04-15T08:06:24.623Z,11.3
2023-04-15T08:16:24.478Z,11.7
2023-04-15T08:26:24.458Z,11.5
2023-04-15T08:36:24.367Z,11.4
2023-04-15T08:46:24.404Z,11.4
2023-04-15T08:56:24.338Z,11.8
2023-04-15T09:06:24.460Z,12.1
2023-04-15T09:16:24.240Z,12
2023-04-15T09:26:24.343Z,12.3
2023-04-15T09:36:24.210Z,12.5
2023-04-15T09:46:24.304Z,12.4
2023-04-15T09:56:24.307Z,12.5
2023-04-15T10:06:24.221Z,12.4
2023-04-15T10:16:24.113Z,12.6
2023-04-15T10:26:24.151Z,12.4
2023-04-15T10:36:24.026Z,12.4
2023-04-15T10:46:23.997Z,12.6
2023-04-15T10:56:23.931Z,12.4
2023-04-15T11:06:23.983Z,12.2
2023-04-15T11:16:23.925Z,11.8
2023-04-15T11:26:23.967Z,11.9
2023-04-15T11:36:23.778Z,12.1
2023-04-15T11:46:23.784Z,12.2
2023-04-15T11:56:23.756Z,11.9
2023-04-15T12:06:23.719Z,11.5
2023-04-15T12:16:23.680Z,11.4
2023-04-15T12:26:23.636Z,11.3
2023-04-15T12:36:23.670Z,11
2023-04-15T12:46:23.573Z,10.8
2023-04-15T12:56:23.581Z,10.6
2023-04-15T13:06:23.524Z,10.6
2023-04-15T13:16:23.531Z,10.5
2023-04-15T13:26:23.453Z,10.4
2023-04-15T13:36:23.439Z,10.4
2023-04-15T13:46:23.384Z,10.3
2023-04-15T13:56:23.367Z,10
2023-04-15T14:06:23.328Z,9.8
2023-04-15T14:16:23.324Z,9.7
2023-04-15T14:26:23.268Z,9.8
2023-04-15T14:36:23.243Z,10
2023-04-15T14:46:23.315Z,10.3
2023-04-15T14:56:23.181Z,10.1
2023-04-15T15:06:23.147Z,9.9
2023-04-15T15:16:23.148Z,9.9
2023-04-15T15:26:23.086Z,9.8
2023-04-15T15:36:23.051Z,9.5
2023-04-15T15:46:23.035Z,9.4
2023-04-15T15:56:23.022Z,9.2
2023-04-15T16:06:22.964Z,9.2
2023-04-15T16:16:22.953Z,9.2
2023-04-15T16:26:22.906Z,9.1
2023-04-15T16:36:22.884Z,9
2023-04-15T16:46:22.859Z,9
2023-04-15T16:56:22.838Z,8.9
2023-04-15T17:06:22.804Z,8.9
2023-04-15T17:16:22.769Z,8.9
2023-04-15T17:26:22.753Z,8.9
2023-04-15T17:36:22.718Z,9
2023-04-15T17:46:22.672Z,8.9
2023-04-15T17:56:22.651Z,8.6
2023-04-15T18:06:22.607Z,8.4
2023-04-15T18:26:22.586Z,8.4
2023-04-15T18:36:22.531Z,8.3
2023-04-15T18:46:22.532Z,8.2
2023-04-15T18:56:22.480Z,8.1
2023-04-15T19:06:22.448Z,8
2023-04-15T19:16:22.422Z,8
2023-04-15T19:26:22.405Z,8
2023-04-15T19:36:22.360Z,7.9
2023-04-15T19:46:22.349Z,7.8
2023-04-15T19:56:22.326Z,7.8
2023-04-15T20:06:22.287Z,7.8
2023-04-15T20:16:22.238Z,7.7
2023-04-15T20:26:22.237Z,7.6
2023-04-15T20:36:22.184Z,7.6
2023-04-15T20:46:22.163Z,7.5
2023-04-15T20:56:22.146Z,7.5
2023-04-15T21:06:22.110Z,7.5
2023-04-15T21:16:22.085Z,7.4
2023-04-15T21:26:22.035Z,7.4
2023-04-15T21:36:22.021Z,7.4
2023-04-15T21:46:22.013Z,7.4
2023-04-15T21:56:21.957Z,7.4
2023-04-15T22:06:21.958Z,7.4
2023-04-15T22:16:21.923Z,7.4
2023-04-15T22:26:21.879Z,7.4
2023-04-15T22:36:21.874Z,7.3
2023-04-15T22:46:21.817Z,7.4
2023-04-15T22:56:21.784Z,7.4
2023-04-15T23:06:21.756Z,7.4
2023-04-15T23:16:21.737Z,7.4
2023-04-15T23:26:21.720Z,7.4
2023-04-15T23:36:21.702Z,7.4
2023-04-15T23:46:21.670Z,7.4
2023-04-15T23:56:21.624Z,7.4
